sensor_id;sensor_type;location;lat;lon;timestamp;P1;durP1;ratioP1;P2;durP2;ratioP2
19436;SDS011;9854;50.968;4.168;2024-03-08T00:00:31;31.63;;;21.93;;
19436;SDS011;9854;50.968;4.168;2024-03-08T00:02:57;31.33;;;21.30;;
19436;SDS011;9854;50.968;4.168;2024-03-08T00:05:23;31.20;;;22.17;;
19436;SDS011;9854;50.968;4.168;2024-03-08T00:07:49;34.50;;;21.90;;
19436;SDS011;9854;50.968;4.168;2024-03-08T00:10:15;35.70;;;21.93;;
19436;SDS011;9854;50.968;4.168;2024-03-08T00:12:42;30.23;;;20.77;;
19436;SDS011;9854;50.968;4.168;2024-03-08T00:15:12;33.30;;;21.97;;
19436;SDS011;9854;50.968;4.168;2024-03-08T00:17:39;33.27;;;20.83;;
19436;SDS011;9854;50.968;4.168;2024-03-08T00:20:08;35.67;;;22.13;;
19436;SDS011;9854;50.968;4.168;2024-03-08T00:22:36;31.77;;;21.93;;
19436;SDS011;9854;50.968;4.168;2024-03-08T00:25:03;29.97;;;21.23;;
19436;SDS011;9854;50.968;4.168;2024-03-08T00:27:30;35.00;;;21.60;;
19436;SDS011;9854;50.968;4.168;2024-03-08T00:29:56;43.57;;;22.83;;
19436;SDS011;9854;50.968;4.168;2024-03-08T00:32:25;37.03;;;21.60;;
19436;SDS011;9854;50.968;4.168;2024-03-08T00:34:52;42.43;;;23.70;;
19436;SDS011;9854;50.968;4.168;2024-03-08T00:37:19;31.97;;;21.87;;
19436;SDS011;9854;50.968;4.168;2024-03-08T00:39:47;39.23;;;24.10;;
19436;SDS011;9854;50.968;4.168;2024-03-08T00:42:15;36.60;;;23.40;;
19436;SDS011;9854;50.968;4.168;2024-03-08T00:44:42;38.83;;;24.07;;
19436;SDS011;9854;50.968;4.168;2024-03-08T00:47:10;44.30;;;25.00;;
19436;SDS011;9854;50.968;4.168;2024-03-08T00:49:36;40.27;;;24.07;;
19436;SDS011;9854;50.968;4.168;2024-03-08T00:52:06;42.23;;;25.30;;
19436;SDS011;9854;50.968;4.168;2024-03-08T00:54:34;38.37;;;24.93;;
19436;SDS011;9854;50.968;4.168;2024-03-08T00:57:01;39.50;;;25.43;;
19436;SDS011;9854;50.968;4.168;2024-03-08T00:59:28;38.30;;;25.43;;
19436;SDS011;9854;50.968;4.168;2024-03-08T01:01:54;45.77;;;26.57;;
19436;SDS011;9854;50.968;4.168;2024-03-08T01:04:20;43.53;;;25.77;;
19436;SDS011;9854;50.968;4.168;2024-03-08T01:06:53;39.77;;;26.23;;
19436;SDS011;9854;50.968;4.168;2024-03-08T01:09:18;45.47;;;27.00;;
19436;SDS011;9854;50.968;4.168;2024-03-08T01:11:47;39.80;;;25.70;;
19436;SDS011;9854;50.968;4.168;2024-03-08T01:14:12;46.87;;;28.07;;
19436;SDS011;9854;50.968;4.168;2024-03-08T01:16:40;48.70;;;27.20;;
19436;SDS011;9854;50.968;4.168;2024-03-08T01:19:07;45.43;;;26.80;;
19436;SDS011;9854;50.968;4.168;2024-03-08T01:21:35;45.07;;;27.60;;
19436;SDS011;9854;50.968;4.168;2024-03-08T01:24:01;45.70;;;27.07;;
19436;SDS011;9854;50.968;4.168;2024-03-08T01:26:32;51.73;;;27.60;;
19436;SDS011;9854;50.968;4.168;2024-03-08T01:29:01;47.13;;;27.23;;
19436;SDS011;9854;50.968;4.168;2024-03-08T01:31:30;46.47;;;26.93;;
19436;SDS011;9854;50.968;4.168;2024-03-08T01:33:57;47.53;;;28.00;;
19436;SDS011;9854;50.968;4.168;2024-03-08T01:36:23;44.23;;;26.27;;
19436;SDS011;9854;50.968;4.168;2024-03-08T01:38:50;49.47;;;27.63;;
19436;SDS011;9854;50.968;4.168;2024-03-08T01:41:16;45.07;;;26.67;;
19436;SDS011;9854;50.968;4.168;2024-03-08T01:43:43;43.90;;;27.57;;
19436;SDS011;9854;50.968;4.168;2024-03-08T01:46:09;43.87;;;26.93;;
19436;SDS011;9854;50.968;4.168;2024-03-08T01:48:41;44.47;;;27.37;;
19436;SDS011;9854;50.968;4.168;2024-03-08T01:51:07;44.13;;;27.60;;
19436;SDS011;9854;50.968;4.168;2024-03-08T01:53:33;43.57;;;27.20;;
19436;SDS011;9854;50.968;4.168;2024-03-08T01:56:00;45.73;;;28.90;;
19436;SDS011;9854;50.968;4.168;2024-03-08T01:58:27;48.90;;;29.57;;
19436;SDS011;9854;50.968;4.168;2024-03-08T02:00:54;49.03;;;29.10;;
19436;SDS011;9854;50.968;4.168;2024-03-08T02:03:24;44.13;;;28.60;;
19436;SDS011;9854;50.968;4.168;2024-03-08T02:05:50;45.20;;;28.17;;
19436;SDS011;9854;50.968;4.168;2024-03-08T02:08:19;47.33;;;28.33;;
19436;SDS011;9854;50.968;4.168;2024-03-08T02:10:48;44.93;;;27.67;;
19436;SDS011;9854;50.968;4.168;2024-03-08T02:13:14;45.30;;;28.03;;
19436;SDS011;9854;50.968;4.168;2024-03-08T02:18:35;46.20;;;29.10;;
19436;SDS011;9854;50.968;4.168;2024-03-08T02:21:04;43.80;;;27.93;;
19436;SDS011;9854;50.968;4.168;2024-03-08T02:23:31;47.23;;;29.27;;
19436;SDS011;9854;50.968;4.168;2024-03-08T02:25:58;41.17;;;27.20;;
19436;SDS011;9854;50.968;4.168;2024-03-08T02:28:24;46.60;;;28.90;;
19436;SDS011;9854;50.968;4.168;2024-03-08T02:30:50;52.90;;;29.87;;
19436;SDS011;9854;50.968;4.168;2024-03-08T02:33:19;43.53;;;28.47;;
19436;SDS011;9854;50.968;4.168;2024-03-08T02:35:45;47.67;;;28.77;;
19436;SDS011;9854;50.968;4.168;2024-03-08T02:38:14;43.70;;;28.57;;
19436;SDS011;9854;50.968;4.168;2024-03-08T02:40:42;44.23;;;29.03;;
19436;SDS011;9854;50.968;4.168;2024-03-08T02:43:08;44.20;;;29.57;;
19436;SDS011;9854;50.968;4.168;2024-03-08T02:45:34;45.30;;;29.33;;
19436;SDS011;9854;50.968;4.168;2024-03-08T02:48:01;44.53;;;28.27;;
19436;SDS011;9854;50.968;4.168;2024-03-08T02:50:26;43.70;;;29.33;;
19436;SDS011;9854;50.968;4.168;2024-03-08T02:52:52;42.37;;;29.17;;
19436;SDS011;9854;50.968;4.168;2024-03-08T02:55:18;47.47;;;29.17;;
19436;SDS011;9854;50.968;4.168;2024-03-08T02:57:45;45.07;;;29.27;;
19436;SDS011;9854;50.968;4.168;2024-03-08T03:00:12;41.17;;;27.47;;
19436;SDS011;9854;50.968;4.168;2024-03-08T03:02:38;43.57;;;30.17;;
19436;SDS011;9854;50.968;4.168;2024-03-08T03:05:05;43.10;;;29.03;;
19436;SDS011;9854;50.968;4.168;2024-03-08T03:07:34;41.73;;;29.47;;
19436;SDS011;9854;50.968;4.168;2024-03-08T03:10:00;45.03;;;28.47;;
19436;SDS011;9854;50.968;4.168;2024-03-08T03:12:29;43.77;;;29.30;;
19436;SDS011;9854;50.968;4.168;2024-03-08T03:14:55;43.43;;;28.97;;
19436;SDS011;9854;50.968;4.168;2024-03-08T03:17:22;48.80;;;29.37;;
19436;SDS011;9854;50.968;4.168;2024-03-08T03:19:49;42.17;;;29.40;;
19436;SDS011;9854;50.968;4.168;2024-03-08T03:22:18;45.53;;;28.80;;
19436;SDS011;9854;50.968;4.168;2024-03-08T03:24:47;38.40;;;27.27;;
19436;SDS011;9854;50.968;4.168;2024-03-08T03:27:14;37.10;;;27.20;;
19436;SDS011;9854;50.968;4.168;2024-03-08T03:29:40;42.77;;;28.33;;
19436;SDS011;9854;50.968;4.168;2024-03-08T03:32:12;43.10;;;29.53;;
19436;SDS011;9854;50.968;4.168;2024-03-08T03:34:39;43.77;;;28.53;;
19436;SDS011;9854;50.968;4.168;2024-03-08T03:37:05;44.80;;;30.00;;
19436;SDS011;9854;50.968;4.168;2024-03-08T03:39:39;41.17;;;28.43;;
19436;SDS011;9854;50.968;4.168;2024-03-08T03:42:17;41.07;;;27.87;;
19436;SDS011;9854;50.968;4.168;2024-03-08T03:44:44;42.07;;;29.23;;
19436;SDS011;9854;50.968;4.168;2024-03-08T03:47:10;43.83;;;29.97;;
19436;SDS011;9854;50.968;4.168;2024-03-08T03:49:36;40.63;;;29.20;;
19436;SDS011;9854;50.968;4.168;2024-03-08T03:52:02;40.53;;;29.13;;
19436;SDS011;9854;50.968;4.168;2024-03-08T03:54:30;46.10;;;29.47;;
19436;SDS011;9854;50.968;4.168;2024-03-08T03:56:59;45.73;;;28.83;;
19436;SDS011;9854;50.968;4.168;2024-03-08T03:59:25;42.93;;;29.77;;
19436;SDS011;9854;50.968;4.168;2024-03-08T04:01:54;44.57;;;31.03;;
19436;SDS011;9854;50.968;4.168;2024-03-08T04:04:20;44.83;;;29.77;;
19436;SDS011;9854;50.968;4.168;2024-03-08T04:06:46;39.93;;;27.70;;
19436;SDS011;9854;50.968;4.168;2024-03-08T04:09:12;45.03;;;29.27;;
19436;SDS011;9854;50.968;4.168;2024-03-08T04:11:38;42.67;;;30.00;;
19436;SDS011;9854;50.968;4.168;2024-03-08T04:14:05;40.93;;;28.60;;
19436;SDS011;9854;50.968;4.168;2024-03-08T04:16:31;41.83;;;28.97;;
19436;SDS011;9854;50.968;4.168;2024-03-08T04:18:59;49.03;;;28.07;;
19436;SDS011;9854;50.968;4.168;2024-03-08T04:21:29;49.07;;;29.90;;
19436;SDS011;9854;50.968;4.168;2024-03-08T04:23:55;41.50;;;28.70;;
19436;SDS011;9854;50.968;4.168;2024-03-08T04:26:21;50.47;;;30.00;;
19436;SDS011;9854;50.968;4.168;2024-03-08T04:28:47;40.23;;;28.80;;
19436;SDS011;9854;50.968;4.168;2024-03-08T04:31:15;48.07;;;30.67;;
19436;SDS011;9854;50.968;4.168;2024-03-08T04:33:41;41.28;;;34.05;;
19436;SDS011;9854;50.968;4.168;2024-03-08T04:36:09;40.30;;;32.03;;
19436;SDS011;9854;50.968;4.168;2024-03-08T04:38:38;42.23;;;32.10;;
19436;SDS011;9854;50.968;4.168;2024-03-08T04:41:07;42.57;;;31.60;;
19436;SDS011;9854;50.968;4.168;2024-03-08T04:43:33;44.60;;;31.57;;
19436;SDS011;9854;50.968;4.168;2024-03-08T04:45:59;45.63;;;30.97;;
19436;SDS011;9854;50.968;4.168;2024-03-08T04:48:28;43.57;;;30.53;;
19436;SDS011;9854;50.968;4.168;2024-03-08T04:50:57;43.67;;;31.37;;
19436;SDS011;9854;50.968;4.168;2024-03-08T04:53:22;44.67;;;31.33;;
19436;SDS011;9854;50.968;4.168;2024-03-08T04:55:48;45.53;;;31.27;;
19436;SDS011;9854;50.968;4.168;2024-03-08T04:58:14;47.70;;;30.40;;
19436;SDS011;9854;50.968;4.168;2024-03-08T05:00:40;46.00;;;30.83;;
19436;SDS011;9854;50.968;4.168;2024-03-08T05:03:06;49.83;;;32.27;;
19436;SDS011;9854;50.968;4.168;2024-03-08T05:05:36;40.93;;;29.60;;
19436;SDS011;9854;50.968;4.168;2024-03-08T05:08:02;45.53;;;30.33;;
19436;SDS011;9854;50.968;4.168;2024-03-08T05:10:28;45.90;;;31.30;;
19436;SDS011;9854;50.968;4.168;2024-03-08T05:12:53;46.53;;;31.40;;
19436;SDS011;9854;50.968;4.168;2024-03-08T05:15:19;48.17;;;31.07;;
19436;SDS011;9854;50.968;4.168;2024-03-08T05:17:45;48.33;;;32.20;;
19436;SDS011;9854;50.968;4.168;2024-03-08T05:20:11;41.67;;;30.30;;
19436;SDS011;9854;50.968;4.168;2024-03-08T05:22:38;44.07;;;29.87;;
19436;SDS011;9854;50.968;4.168;2024-03-08T05:25:05;46.13;;;31.53;;
19436;SDS011;9854;50.968;4.168;2024-03-08T05:27:33;41.87;;;29.83;;
19436;SDS011;9854;50.968;4.168;2024-03-08T05:29:59;42.83;;;29.53;;
19436;SDS011;9854;50.968;4.168;2024-03-08T05:32:31;44.27;;;30.30;;
19436;SDS011;9854;50.968;4.168;2024-03-08T05:34:57;41.00;;;28.97;;
19436;SDS011;9854;50.968;4.168;2024-03-08T05:37:23;45.20;;;29.57;;
19436;SDS011;9854;50.968;4.168;2024-03-08T05:39:48;46.77;;;30.07;;
19436;SDS011;9854;50.968;4.168;2024-03-08T05:42:14;45.87;;;30.40;;
19436;SDS011;9854;50.968;4.168;2024-03-08T05:44:40;40.70;;;29.47;;
19436;SDS011;9854;50.968;4.168;2024-03-08T05:47:08;49.40;;;31.43;;
19436;SDS011;9854;50.968;4.168;2024-03-08T05:49:34;43.63;;;30.10;;
19436;SDS011;9854;50.968;4.168;2024-03-08T05:51:59;47.23;;;31.13;;
19436;SDS011;9854;50.968;4.168;2024-03-08T05:54:25;43.50;;;31.30;;
19436;SDS011;9854;50.968;4.168;2024-03-08T05:56:52;43.97;;;30.60;;
19436;SDS011;9854;50.968;4.168;2024-03-08T05:59:18;41.10;;;29.43;;
19436;SDS011;9854;50.968;4.168;2024-03-08T06:01:43;48.27;;;29.33;;
19436;SDS011;9854;50.968;4.168;2024-03-08T06:04:11;43.67;;;35.00;;
19436;SDS011;9854;50.968;4.168;2024-03-08T06:06:36;44.73;;;32.97;;
19436;SDS011;9854;50.968;4.168;2024-03-08T06:09:02;45.37;;;30.57;;
19436;SDS011;9854;50.968;4.168;2024-03-08T06:11:34;44.03;;;31.05;;
19436;SDS011;9854;50.968;4.168;2024-03-08T06:14:00;49.17;;;31.17;;
19436;SDS011;9854;50.968;4.168;2024-03-08T06:16:28;46.00;;;29.20;;
19436;SDS011;9854;50.968;4.168;2024-03-08T06:18:57;44.27;;;29.93;;
19436;SDS011;9854;50.968;4.168;2024-03-08T06:21:25;42.85;;;34.88;;
19436;SDS011;9854;50.968;4.168;2024-03-08T06:23:54;38.97;;;32.47;;
19436;SDS011;9854;50.968;4.168;2024-03-08T06:26:22;46.63;;;32.73;;
19436;SDS011;9854;50.968;4.168;2024-03-08T06:28:49;46.17;;;31.75;;
19436;SDS011;9854;50.968;4.168;2024-03-08T06:31:20;50.10;;;31.87;;
19436;SDS011;9854;50.968;4.168;2024-03-08T06:33:46;43.87;;;31.00;;
19436;SDS011;9854;50.968;4.168;2024-03-08T06:36:16;45.27;;;31.20;;
19436;SDS011;9854;50.968;4.168;2024-03-08T06:38:44;45.70;;;30.90;;
19436;SDS011;9854;50.968;4.168;2024-03-08T06:41:11;44.63;;;31.33;;
19436;SDS011;9854;50.968;4.168;2024-03-08T06:43:45;45.27;;;30.50;;
19436;SDS011;9854;50.968;4.168;2024-03-08T06:46:15;49.50;;;31.03;;
19436;SDS011;9854;50.968;4.168;2024-03-08T06:48:41;49.47;;;31.10;;
19436;SDS011;9854;50.968;4.168;2024-03-08T06:51:07;48.17;;;31.33;;
19436;SDS011;9854;50.968;4.168;2024-03-08T06:53:32;45.87;;;30.00;;
19436;SDS011;9854;50.968;4.168;2024-03-08T06:56:00;49.40;;;30.70;;
19436;SDS011;9854;50.968;4.168;2024-03-08T06:58:26;47.70;;;30.93;;
19436;SDS011;9854;50.968;4.168;2024-03-08T07:00:53;47.60;;;30.67;;
19436;SDS011;9854;50.968;4.168;2024-03-08T07:03:19;46.90;;;29.63;;
19436;SDS011;9854;50.968;4.168;2024-03-08T07:05:47;44.87;;;30.43;;
19436;SDS011;9854;50.968;4.168;2024-03-08T07:08:15;44.97;;;30.63;;
19436;SDS011;9854;50.968;4.168;2024-03-08T07:10:41;49.33;;;30.40;;
19436;SDS011;9854;50.968;4.168;2024-03-08T07:13:07;46.57;;;30.83;;
19436;SDS011;9854;50.968;4.168;2024-03-08T07:15:33;43.57;;;29.37;;
19436;SDS011;9854;50.968;4.168;2024-03-08T07:18:00;41.47;;;29.97;;
19436;SDS011;9854;50.968;4.168;2024-03-08T07:20:26;41.20;;;28.83;;
19436;SDS011;9854;50.968;4.168;2024-03-08T07:22:53;43.57;;;28.27;;
19436;SDS011;9854;50.968;4.168;2024-03-08T07:25:20;45.67;;;28.60;;
19436;SDS011;9854;50.968;4.168;2024-03-08T07:27:49;44.10;;;28.53;;
19436;SDS011;9854;50.968;4.168;2024-03-08T07:30:22;45.33;;;28.20;;
19436;SDS011;9854;50.968;4.168;2024-03-08T07:33:09;46.43;;;29.50;;
19436;SDS011;9854;50.968;4.168;2024-03-08T07:35:38;43.10;;;33.50;;
19436;SDS011;9854;50.968;4.168;2024-03-08T07:38:05;37.50;;;30.77;;
19436;SDS011;9854;50.968;4.168;2024-03-08T07:40:35;46.07;;;31.40;;
19436;SDS011;9854;50.968;4.168;2024-03-08T07:43:04;46.95;;;32.13;;
19436;SDS011;9854;50.968;4.168;2024-03-08T07:45:30;41.13;;;31.17;;
19436;SDS011;9854;50.968;4.168;2024-03-08T07:47:55;41.60;;;30.63;;
19436;SDS011;9854;50.968;4.168;2024-03-08T07:50:21;48.40;;;30.87;;
19436;SDS011;9854;50.968;4.168;2024-03-08T07:52:47;42.47;;;33.03;;
19436;SDS011;9854;50.968;4.168;2024-03-08T07:55:16;44.33;;;31.50;;
19436;SDS011;9854;50.968;4.168;2024-03-08T07:57:41;42.20;;;31.27;;
19436;SDS011;9854;50.968;4.168;2024-03-08T08:00:10;38.87;;;30.07;;
19436;SDS011;9854;50.968;4.168;2024-03-08T08:02:36;41.00;;;29.17;;
19436;SDS011;9854;50.968;4.168;2024-03-08T08:05:02;39.40;;;30.77;;
19436;SDS011;9854;50.968;4.168;2024-03-08T08:07:28;39.27;;;30.07;;
19436;SDS011;9854;50.968;4.168;2024-03-08T08:09:57;39.70;;;29.27;;
19436;SDS011;9854;50.968;4.168;2024-03-08T08:12:22;39.00;;;30.10;;
19436;SDS011;9854;50.968;4.168;2024-03-08T08:14:48;35.55;;;29.00;;
19436;SDS011;9854;50.968;4.168;2024-03-08T08:17:15;40.70;;;28.93;;
19436;SDS011;9854;50.968;4.168;2024-03-08T08:19:43;36.97;;;29.00;;
19436;SDS011;9854;50.968;4.168;2024-03-08T08:22:11;36.67;;;29.57;;
19436;SDS011;9854;50.968;4.168;2024-03-08T08:24:37;34.67;;;28.23;;
19436;SDS011;9854;50.968;4.168;2024-03-08T08:27:03;46.10;;;30.47;;
19436;SDS011;9854;50.968;4.168;2024-03-08T08:29:31;37.97;;;28.43;;
19436;SDS011;9854;50.968;4.168;2024-03-08T08:31:58;38.17;;;28.93;;
19436;SDS011;9854;50.968;4.168;2024-03-08T08:34:24;40.07;;;29.03;;
19436;SDS011;9854;50.968;4.168;2024-03-08T08:36:53;47.20;;;29.23;;
19436;SDS011;9854;50.968;4.168;2024-03-08T08:39:20;37.27;;;28.17;;
19436;SDS011;9854;50.968;4.168;2024-03-08T08:41:47;36.53;;;29.00;;
19436;SDS011;9854;50.968;4.168;2024-03-08T08:44:13;37.60;;;28.17;;
19436;SDS011;9854;50.968;4.168;2024-03-08T08:46:40;34.83;;;27.37;;
19436;SDS011;9854;50.968;4.168;2024-03-08T08:49:05;37.97;;;27.73;;
19436;SDS011;9854;50.968;4.168;2024-03-08T08:51:35;36.70;;;28.40;;
19436;SDS011;9854;50.968;4.168;2024-03-08T08:54:04;41.30;;;27.27;;
19436;SDS011;9854;50.968;4.168;2024-03-08T08:56:32;38.37;;;27.50;;
19436;SDS011;9854;50.968;4.168;2024-03-08T08:59:00;38.87;;;28.10;;
19436;SDS011;9854;50.968;4.168;2024-03-08T09:01:26;39.07;;;27.57;;
19436;SDS011;9854;50.968;4.168;2024-03-08T09:03:52;35.70;;;25.73;;
19436;SDS011;9854;50.968;4.168;2024-03-08T09:06:19;35.97;;;26.73;;
19436;SDS011;9854;50.968;4.168;2024-03-08T09:08:50;35.17;;;25.80;;
19436;SDS011;9854;50.968;4.168;2024-03-08T09:11:15;38.87;;;26.10;;
19436;SDS011;9854;50.968;4.168;2024-03-08T09:13:43;39.80;;;26.70;;
19436;SDS011;9854;50.968;4.168;2024-03-08T09:16:11;39.63;;;26.20;;
19436;SDS011;9854;50.968;4.168;2024-03-08T09:18:39;38.73;;;27.00;;
19436;SDS011;9854;50.968;4.168;2024-03-08T09:21:07;36.43;;;26.00;;
19436;SDS011;9854;50.968;4.168;2024-03-08T09:23:35;32.28;;;25.85;;
19436;SDS011;9854;50.968;4.168;2024-03-08T09:26:01;30.37;;;25.93;;
19436;SDS011;9854;50.968;4.168;2024-03-08T09:28:31;32.53;;;24.77;;
19436;SDS011;9854;50.968;4.168;2024-03-08T09:30:56;36.78;;;26.27;;
19436;SDS011;9854;50.968;4.168;2024-03-08T09:33:23;33.67;;;25.00;;
19436;SDS011;9854;50.968;4.168;2024-03-08T09:35:49;29.50;;;24.43;;
19436;SDS011;9854;50.968;4.168;2024-03-08T09:38:16;32.87;;;24.27;;
19436;SDS011;9854;50.968;4.168;2024-03-08T09:40:42;33.33;;;24.27;;
19436;SDS011;9854;50.968;4.168;2024-03-08T09:43:08;29.95;;;25.23;;
19436;SDS011;9854;50.968;4.168;2024-03-08T09:45:37;31.40;;;24.17;;
19436;SDS011;9854;50.968;4.168;2024-03-08T09:48:10;30.27;;;23.83;;
19436;SDS011;9854;50.968;4.168;2024-03-08T09:50:41;30.47;;;22.97;;
19436;SDS011;9854;50.968;4.168;2024-03-08T09:53:07;31.27;;;22.70;;
19436;SDS011;9854;50.968;4.168;2024-03-08T09:55:37;33.17;;;23.70;;
19436;SDS011;9854;50.968;4.168;2024-03-08T09:58:07;28.80;;;22.83;;
19436;SDS011;9854;50.968;4.168;2024-03-08T10:00:57;30.90;;;23.47;;
19436;SDS011;9854;50.968;4.168;2024-03-08T10:03:24;29.53;;;22.93;;
19436;SDS011;9854;50.968;4.168;2024-03-08T10:05:53;30.43;;;21.53;;
19436;SDS011;9854;50.968;4.168;2024-03-08T10:08:21;25.47;;;21.77;;
19436;SDS011;9854;50.968;4.168;2024-03-08T10:10:47;28.73;;;21.03;;
19436;SDS011;9854;50.968;4.168;2024-03-08T10:13:14;30.70;;;22.90;;
19436;SDS011;9854;50.968;4.168;2024-03-08T10:15:41;27.50;;;21.98;;
19436;SDS011;9854;50.968;4.168;2024-03-08T10:18:08;28.37;;;21.93;;
19436;SDS011;9854;50.968;4.168;2024-03-08T10:20:35;28.70;;;21.90;;
19436;SDS011;9854;50.968;4.168;2024-03-08T10:23:06;25.93;;;20.67;;
19436;SDS011;9854;50.968;4.168;2024-03-08T10:25:34;29.10;;;21.50;;
19436;SDS011;9854;50.968;4.168;2024-03-08T10:28:02;26.37;;;20.70;;
19436;SDS011;9854;50.968;4.168;2024-03-08T10:30:29;27.33;;;21.20;;
19436;SDS011;9854;50.968;4.168;2024-03-08T10:32:57;28.00;;;21.13;;
19436;SDS011;9854;50.968;4.168;2024-03-08T10:35:24;25.52;;;19.88;;
19436;SDS011;9854;50.968;4.168;2024-03-08T10:37:52;27.95;;;20.70;;
19436;SDS011;9854;50.968;4.168;2024-03-08T10:40:28;25.95;;;20.75;;
19436;SDS011;9854;50.968;4.168;2024-03-08T10:42:56;29.10;;;20.98;;
19436;SDS011;9854;50.968;4.168;2024-03-08T10:45:35;27.45;;;20.08;;
19436;SDS011;9854;50.968;4.168;2024-03-08T10:50:48;25.67;;;19.08;;
19436;SDS011;9854;50.968;4.168;2024-03-08T10:53:17;24.02;;;19.77;;
19436;SDS011;9854;50.968;4.168;2024-03-08T10:55:48;23.02;;;19.23;;
19436;SDS011;9854;50.968;4.168;2024-03-08T10:58:19;26.33;;;19.42;;
19436;SDS011;9854;50.968;4.168;2024-03-08T11:00:47;28.27;;;19.35;;
19436;SDS011;9854;50.968;4.168;2024-03-08T11:08:55;26.88;;;18.83;;
19436;SDS011;9854;50.968;4.168;2024-03-08T11:11:32;24.65;;;18.35;;
19436;SDS011;9854;50.968;4.168;2024-03-08T11:14:03;25.67;;;18.73;;
19436;SDS011;9854;50.968;4.168;2024-03-08T11:18:59;23.45;;;19.25;;
19436;SDS011;9854;50.968;4.168;2024-03-08T11:21:56;23.55;;;18.45;;
19436;SDS011;9854;50.968;4.168;2024-03-08T11:24:23;24.50;;;18.50;;
19436;SDS011;9854;50.968;4.168;2024-03-08T11:26:48;28.20;;;18.55;;
19436;SDS011;9854;50.968;4.168;2024-03-08T11:32:04;27.20;;;18.02;;
19436;SDS011;9854;50.968;4.168;2024-03-08T11:34:31;21.83;;;18.60;;
19436;SDS011;9854;50.968;4.168;2024-03-08T11:37:00;23.10;;;17.75;;
19436;SDS011;9854;50.968;4.168;2024-03-08T11:39:28;24.98;;;18.40;;
19436;SDS011;9854;50.968;4.168;2024-03-08T11:41:55;21.90;;;17.95;;
19436;SDS011;9854;50.968;4.168;2024-03-08T11:44:21;24.48;;;18.10;;
19436;SDS011;9854;50.968;4.168;2024-03-08T11:46:52;25.42;;;18.30;;
19436;SDS011;9854;50.968;4.168;2024-03-08T11:49:19;24.08;;;18.60;;
19436;SDS011;9854;50.968;4.168;2024-03-08T11:51:45;26.20;;;18.60;;
19436;SDS011;9854;50.968;4.168;2024-03-08T11:54:12;22.15;;;17.63;;
19436;SDS011;9854;50.968;4.168;2024-03-08T11:56:38;25.52;;;17.67;;
19436;SDS011;9854;50.968;4.168;2024-03-08T11:59:05;22.90;;;18.13;;
19436;SDS011;9854;50.968;4.168;2024-03-08T12:01:37;27.77;;;17.15;;
19436;SDS011;9854;50.968;4.168;2024-03-08T12:04:06;24.20;;;17.95;;
19436;SDS011;9854;50.968;4.168;2024-03-08T12:06:37;24.38;;;18.45;;
19436;SDS011;9854;50.968;4.168;2024-03-08T12:09:10;22.25;;;17.88;;
19436;SDS011;9854;50.968;4.168;2024-03-08T12:11:38;27.58;;;17.42;;
19436;SDS011;9854;50.968;4.168;2024-03-08T12:14:04;25.77;;;16.75;;
19436;SDS011;9854;50.968;4.168;2024-03-08T12:16:31;23.02;;;17.50;;
19436;SDS011;9854;50.968;4.168;2024-03-08T12:19:01;24.48;;;17.45;;
19436;SDS011;9854;50.968;4.168;2024-03-08T12:21:31;24.08;;;18.40;;
19436;SDS011;9854;50.968;4.168;2024-03-08T12:24:07;22.40;;;17.52;;
19436;SDS011;9854;50.968;4.168;2024-03-08T12:26:35;23.00;;;17.83;;
19436;SDS011;9854;50.968;4.168;2024-03-08T12:29:21;23.48;;;17.80;;
19436;SDS011;9854;50.968;4.168;2024-03-08T12:31:53;24.48;;;17.45;;
19436;SDS011;9854;50.968;4.168;2024-03-08T12:34:21;23.08;;;16.80;;
19436;SDS011;9854;50.968;4.168;2024-03-08T12:36:50;21.27;;;16.73;;
19436;SDS011;9854;50.968;4.168;2024-03-08T12:39:19;28.33;;;17.52;;
19436;SDS011;9854;50.968;4.168;2024-03-08T12:41:47;20.60;;;15.88;;
19436;SDS011;9854;50.968;4.168;2024-03-08T12:44:16;22.20;;;17.55;;
19436;SDS011;9854;50.968;4.168;2024-03-08T12:46:44;19.50;;;15.60;;
19436;SDS011;9854;50.968;4.168;2024-03-08T12:49:13;27.10;;;16.95;;
19436;SDS011;9854;50.968;4.168;2024-03-08T12:51:47;28.35;;;17.15;;
19436;SDS011;9854;50.968;4.168;2024-03-08T12:54:13;22.38;;;15.95;;
19436;SDS011;9854;50.968;4.168;2024-03-08T12:56:44;20.23;;;16.58;;
19436;SDS011;9854;50.968;4.168;2024-03-08T12:59:12;21.95;;;15.95;;
19436;SDS011;9854;50.968;4.168;2024-03-08T13:01:41;23.60;;;15.93;;
19436;SDS011;9854;50.968;4.168;2024-03-08T13:04:07;21.55;;;15.65;;
19436;SDS011;9854;50.968;4.168;2024-03-08T13:06:36;24.27;;;16.23;;
19436;SDS011;9854;50.968;4.168;2024-03-08T13:09:02;23.95;;;16.42;;
19436;SDS011;9854;50.968;4.168;2024-03-08T13:11:30;23.92;;;16.98;;
19436;SDS011;9854;50.968;4.168;2024-03-08T13:14:01;20.65;;;16.38;;
19436;SDS011;9854;50.968;4.168;2024-03-08T13:16:33;24.17;;;16.33;;
19436;SDS011;9854;50.968;4.168;2024-03-08T13:19:01;21.60;;;15.65;;
19436;SDS011;9854;50.968;4.168;2024-03-08T13:21:29;22.75;;;15.52;;
19436;SDS011;9854;50.968;4.168;2024-03-08T13:23:55;20.20;;;16.63;;
19436;SDS011;9854;50.968;4.168;2024-03-08T13:26:21;27.40;;;16.50;;
19436;SDS011;9854;50.968;4.168;2024-03-08T13:28:48;18.92;;;15.02;;
19436;SDS011;9854;50.968;4.168;2024-03-08T13:31:21;22.17;;;15.75;;
19436;SDS011;9854;50.968;4.168;2024-03-08T13:33:49;23.98;;;15.50;;
19436;SDS011;9854;50.968;4.168;2024-03-08T13:36:16;20.38;;;16.50;;
19436;SDS011;9854;50.968;4.168;2024-03-08T13:38:48;22.98;;;16.33;;
19436;SDS011;9854;50.968;4.168;2024-03-08T13:41:18;16.13;;;14.25;;
19436;SDS011;9854;50.968;4.168;2024-03-08T13:43:47;20.08;;;15.90;;
19436;SDS011;9854;50.968;4.168;2024-03-08T13:46:15;21.08;;;14.98;;
19436;SDS011;9854;50.968;4.168;2024-03-08T13:48:41;19.67;;;15.13;;
19436;SDS011;9854;50.968;4.168;2024-03-08T13:51:09;20.15;;;15.73;;
19436;SDS011;9854;50.968;4.168;2024-03-08T13:53:37;18.20;;;15.80;;
19436;SDS011;9854;50.968;4.168;2024-03-08T13:56:03;23.15;;;15.30;;
19436;SDS011;9854;50.968;4.168;2024-03-08T13:58:30;29.55;;;16.23;;
19436;SDS011;9854;50.968;4.168;2024-03-08T14:00:56;21.33;;;15.05;;
19436;SDS011;9854;50.968;4.168;2024-03-08T14:03:22;19.35;;;14.52;;
19436;SDS011;9854;50.968;4.168;2024-03-08T14:05:49;23.00;;;14.93;;
19436;SDS011;9854;50.968;4.168;2024-03-08T14:08:15;18.70;;;15.20;;
19436;SDS011;9854;50.968;4.168;2024-03-08T14:10:42;25.40;;;15.77;;
19436;SDS011;9854;50.968;4.168;2024-03-08T14:13:12;18.55;;;14.93;;
19436;SDS011;9854;50.968;4.168;2024-03-08T14:15:38;27.70;;;15.40;;
19436;SDS011;9854;50.968;4.168;2024-03-08T14:18:07;18.08;;;14.77;;
19436;SDS011;9854;50.968;4.168;2024-03-08T14:20:32;16.92;;;14.70;;
19436;SDS011;9854;50.968;4.168;2024-03-08T14:23:00;19.30;;;16.20;;
19436;SDS011;9854;50.968;4.168;2024-03-08T14:25:26;19.63;;;16.02;;
19436;SDS011;9854;50.968;4.168;2024-03-08T14:27:54;20.30;;;16.20;;
19436;SDS011;9854;50.968;4.168;2024-03-08T14:30:26;21.13;;;15.75;;
19436;SDS011;9854;50.968;4.168;2024-03-08T14:32:59;18.20;;;14.70;;
19436;SDS011;9854;50.968;4.168;2024-03-08T14:35:34;21.92;;;15.07;;
19436;SDS011;9854;50.968;4.168;2024-03-08T14:38:03;18.00;;;14.77;;
19436;SDS011;9854;50.968;4.168;2024-03-08T14:40:29;17.92;;;15.18;;
19436;SDS011;9854;50.968;4.168;2024-03-08T14:42:55;23.88;;;15.10;;
19436;SDS011;9854;50.968;4.168;2024-03-08T14:45:21;22.13;;;15.50;;
19436;SDS011;9854;50.968;4.168;2024-03-08T14:47:51;19.02;;;14.70;;
19436;SDS011;9854;50.968;4.168;2024-03-08T14:50:17;22.08;;;15.40;;
19436;SDS011;9854;50.968;4.168;2024-03-08T14:52:46;20.48;;;15.70;;